sensor_id;sensor_type;location;lat;lon;timestamp;temperature;humidity
42615;DHT22;28754;47.700;7.924;2023-05-29T00:01:25;15.60;99.90
42615;DHT22;28754;47.700;7.924;2023-05-29T00:04:12;15.50;99.90
42615;DHT22;28754;47.700;7.924;2023-05-29T00:06:59;15.50;99.90
42615;DHT22;28754;47.700;7.924;2023-05-29T00:09:46;15.40;99.90
42615;DHT22;28754;47.700;7.924;2023-05-29T00:12:34;15.40;99.90
42615;DHT22;28754;47.700;7.924;2023-05-29T00:15:22;15.40;99.90
42615;DHT22;28754;47.700;7.924;2023-05-29T00:18:09;15.30;99.90
42615;DHT22;28754;47.700;7.924;2023-05-29T00:20:56;15.40;99.90
42615;DHT22;28754;47.700;7.924;2023-05-29T00:23:44;15.30;99.90
42615;DHT22;28754;47.700;7.924;2023-05-29T00:26:31;15.30;99.90
42615;DHT22;28754;47.700;7.924;2023-05-29T00:29:19;15.40;99.90
42615;DHT22;28754;47.700;7.924;2023-05-29T00:32:07;15.30;99.90
42615;DHT22;28754;47.700;7.924;2023-05-29T00:34:55;15.30;99.90
42615;DHT22;28754;47.700;7.924;2023-05-29T00:37:42;15.20;99.90
42615;DHT22;28754;47.700;7.924;2023-05-29T00:40:28;15.20;99.90
42615;DHT22;28754;47.700;7.924;2023-05-29T00:43:16;15.20;99.90
42615;DHT22;28754;47.700;7.924;2023-05-29T00:46:02;15.20;99.90
42615;DHT22;28754;47.700;7.924;2023-05-29T00:48:52;15.20;99.90
42615;DHT22;28754;47.700;7.924;2023-05-29T00:51:40;15.10;99.90
42615;DHT22;28754;47.700;7.924;2023-05-29T00:54:28;15.10;99.90
42615;DHT22;28754;47.700;7.924;2023-05-29T00:57:17;15.00;99.90
42615;DHT22;28754;47.700;7.924;2023-05-29T01:00:05;14.90;99.90
42615;DHT22;28754;47.700;7.924;2023-05-29T01:02:55;14.90;99.90
42615;DHT22;28754;47.700;7.924;2023-05-29T01:05:42;14.90;99.90
42615;DHT22;28754;47.700;7.924;2023-05-29T01:08:29;15.00;99.90
42615;DHT22;28754;47.700;7.924;2023-05-29T01:11:32;15.00;99.90
42615;DHT22;28754;47.700;7.924;2023-05-29T01:22:00;15.00;99.90
42615;DHT22;28754;47.700;7.924;2023-05-29T01:25:23;15.00;99.90
42615;DHT22;28754;47.700;7.924;2023-05-29T01:28:33;14.90;99.90
42615;DHT22;28754;47.700;7.924;2023-05-29T01:31:28;14.80;99.90
42615;DHT22;28754;47.700;7.924;2023-05-29T01:34:18;14.80;99.90
42615;DHT22;28754;47.700;7.924;2023-05-29T01:37:04;14.70;99.90
42615;DHT22;28754;47.700;7.924;2023-05-29T01:39:51;14.70;99.90
42615;DHT22;28754;47.700;7.924;2023-05-29T01:42:39;14.70;99.90
42615;DHT22;28754;47.700;7.924;2023-05-29T01:45:26;14.70;99.90
42615;DHT22;28754;47.700;7.924;2023-05-29T01:48:13;14.70;99.90
42615;DHT22;28754;47.700;7.924;2023-05-29T01:51:00;14.70;99.90
42615;DHT22;28754;47.700;7.924;2023-05-29T01:53:47;14.70;99.90
42615;DHT22;28754;47.700;7.924;2023-05-29T01:56:34;14.70;99.90
42615;DHT22;28754;47.700;7.924;2023-05-29T01:59:22;14.60;99.90
42615;DHT22;28754;47.700;7.924;2023-05-29T02:02:09;14.60;99.90
42615;DHT22;28754;47.700;7.924;2023-05-29T02:04:58;14.60;99.90
42615;DHT22;28754;47.700;7.924;2023-05-29T02:07:44;14.60;99.90
42615;DHT22;28754;47.700;7.924;2023-05-29T02:10:31;14.60;99.90
42615;DHT22;28754;47.700;7.924;2023-05-29T02:13:19;14.70;99.90
42615;DHT22;28754;47.700;7.924;2023-05-29T02:16:07;14.60;99.90
42615;DHT22;28754;47.700;7.924;2023-05-29T02:18:54;14.70;99.90
42615;DHT22;28754;47.700;7.924;2023-05-29T02:21:41;14.60;99.90
42615;DHT22;28754;47.700;7.924;2023-05-29T02:24:28;14.60;99.90
42615;DHT22;28754;47.700;7.924;2023-05-29T02:27:14;14.60;99.90
42615;DHT22;28754;47.700;7.924;2023-05-29T02:30:02;14.60;99.90
42615;DHT22;28754;47.700;7.924;2023-05-29T02:32:49;14.70;99.90
42615;DHT22;28754;47.700;7.924;2023-05-29T02:35:35;14.70;99.90
42615;DHT22;28754;47.700;7.924;2023-05-29T02:38:24;14.70;99.90
42615;DHT22;28754;47.700;7.924;2023-05-29T02:41:11;14.70;99.90
42615;DHT22;28754;47.700;7.924;2023-05-29T02:43:58;14.60;99.90
42615;DHT22;28754;47.700;7.924;2023-05-29T02:46:44;14.70;99.90
42615;DHT22;28754;47.700;7.924;2023-05-29T02:49:31;14.70;99.90
42615;DHT22;28754;47.700;7.924;2023-05-29T02:52:18;14.70;99.90
42615;DHT22;28754;47.700;7.924;2023-05-29T02:55:05;14.70;99.90
42615;DHT22;28754;47.700;7.924;2023-05-29T02:57:52;14.60;99.90
42615;DHT22;28754;47.700;7.924;2023-05-29T03:00:41;14.60;99.90
42615;DHT22;28754;47.700;7.924;2023-05-29T03:03:28;14.70;99.90
42615;DHT22;28754;47.700;7.924;2023-05-29T03:06:14;14.60;99.90
42615;DHT22;28754;47.700;7.924;2023-05-29T03:09:04;14.60;99.90
42615;DHT22;28754;47.700;7.924;2023-05-29T03:11:53;14.60;99.90
42615;DHT22;28754;47.700;7.924;2023-05-29T03:14:40;14.60;99.90
42615;DHT22;28754;47.700;7.924;2023-05-29T03:17:31;14.60;99.90
42615;DHT22;28754;47.700;7.924;2023-05-29T03:20:18;14.50;99.90
42615;DHT22;28754;47.700;7.924;2023-05-29T03:23:05;14.60;99.90
42615;DHT22;28754;47.700;7.924;2023-05-29T03:25:53;14.60;99.90
42615;DHT22;28754;47.700;7.924;2023-05-29T03:28:40;14.60;99.90
42615;DHT22;28754;47.700;7.924;2023-05-29T03:31:29;14.60;99.90
42615;DHT22;28754;47.700;7.924;2023-05-29T03:34:16;14.60;99.90
42615;DHT22;28754;47.700;7.924;2023-05-29T03:37:09;14.60;99.90
42615;DHT22;28754;47.700;7.924;2023-05-29T03:39:56;14.60;99.90
42615;DHT22;28754;47.700;7.924;2023-05-29T03:42:44;14.70;99.90
42615;DHT22;28754;47.700;7.924;2023-05-29T03:45:32;14.60;99.90
42615;DHT22;28754;47.700;7.924;2023-05-29T03:48:19;14.60;99.90
42615;DHT22;28754;47.700;7.924;2023-05-29T03:51:07;14.60;99.90
42615;DHT22;28754;47.700;7.924;2023-05-29T03:53:56;14.70;99.90
42615;DHT22;28754;47.700;7.924;2023-05-29T03:56:43;14.60;99.90
42615;DHT22;28754;47.700;7.924;2023-05-29T03:59:32;14.60;99.90
42615;DHT22;28754;47.700;7.924;2023-05-29T04:02:19;14.60;99.90
42615;DHT22;28754;47.700;7.924;2023-05-29T04:05:06;14.60;99.90
42615;DHT22;28754;47.700;7.924;2023-05-29T04:07:55;14.70;99.90
42615;DHT22;28754;47.700;7.924;2023-05-29T04:10:42;14.70;99.90
42615;DHT22;28754;47.700;7.924;2023-05-29T04:13:29;14.70;99.90
42615;DHT22;28754;47.700;7.924;2023-05-29T04:16:16;14.70;99.90
42615;DHT22;28754;47.700;7.924;2023-05-29T04:19:03;14.70;99.90
42615;DHT22;28754;47.700;7.924;2023-05-29T04:21:51;14.60;99.90
42615;DHT22;28754;47.700;7.924;2023-05-29T04:24:38;14.60;99.90
42615;DHT22;28754;47.700;7.924;2023-05-29T04:27:25;14.60;99.90
42615;DHT22;28754;47.700;7.924;2023-05-29T04:30:13;14.50;99.90
42615;DHT22;28754;47.700;7.924;2023-05-29T04:33:05;14.50;99.90
42615;DHT22;28754;47.700;7.924;2023-05-29T04:35:53;14.60;99.90
42615;DHT22;28754;47.700;7.924;2023-05-29T04:38:40;14.60;99.90
42615;DHT22;28754;47.700;7.924;2023-05-29T04:41:27;14.50;99.90
42615;DHT22;28754;47.700;7.924;2023-05-29T04:44:18;14.60;99.90
42615;DHT22;28754;47.700;7.924;2023-05-29T04:47:08;14.70;99.90
42615;DHT22;28754;47.700;7.924;2023-05-29T04:49:55;14.60;99.90
42615;DHT22;28754;47.700;7.924;2023-05-29T04:52:41;14.70;99.90
42615;DHT22;28754;47.700;7.924;2023-05-29T04:55:30;14.70;99.90
42615;DHT22;28754;47.700;7.924;2023-05-29T04:58:17;14.70;99.90
42615;DHT22;28754;47.700;7.924;2023-05-29T05:01:04;14.80;99.90
42615;DHT22;28754;47.700;7.924;2023-05-29T05:03:53;14.90;99.90
42615;DHT22;28754;47.700;7.924;2023-05-29T05:06:42;14.90;99.90
42615;DHT22;28754;47.700;7.924;2023-05-29T05:09:30;14.90;99.90
42615;DHT22;28754;47.700;7.924;2023-05-29T05:12:18;15.00;99.90
42615;DHT22;28754;47.700;7.924;2023-05-29T05:15:05;15.10;99.90
42615;DHT22;28754;47.700;7.924;2023-05-29T05:17:54;15.10;99.90
42615;DHT22;28754;47.700;7.924;2023-05-29T05:20:40;15.10;99.90
42615;DHT22;28754;47.700;7.924;2023-05-29T05:23:28;15.10;99.90
42615;DHT22;28754;47.700;7.924;2023-05-29T05:26:14;15.20;99.90
42615;DHT22;28754;47.700;7.924;2023-05-29T05:29:01;15.20;99.90
42615;DHT22;28754;47.700;7.924;2023-05-29T05:31:50;15.30;99.90
42615;DHT22;28754;47.700;7.924;2023-05-29T05:34:37;15.30;99.90
42615;DHT22;28754;47.700;7.924;2023-05-29T05:37:24;15.40;99.90
42615;DHT22;28754;47.700;7.924;2023-05-29T05:40:12;15.50;99.90
42615;DHT22;28754;47.700;7.924;2023-05-29T05:43:10;15.60;99.90
42615;DHT22;28754;47.700;7.924;2023-05-29T05:46:19;15.60;99.90
42615;DHT22;28754;47.700;7.924;2023-05-29T05:49:06;15.70;99.90
42615;DHT22;28754;47.700;7.924;2023-05-29T05:51:53;15.90;99.90
42615;DHT22;28754;47.700;7.924;2023-05-29T05:54:39;15.90;99.90
42615;DHT22;28754;47.700;7.924;2023-05-29T05:57:26;16.00;99.90
42615;DHT22;28754;47.700;7.924;2023-05-29T06:00:14;16.10;99.90
42615;DHT22;28754;47.700;7.924;2023-05-29T06:03:04;16.20;99.90
42615;DHT22;28754;47.700;7.924;2023-05-29T06:06:06;16.30;99.90
42615;DHT22;28754;47.700;7.924;2023-05-29T06:08:55;16.40;99.90
42615;DHT22;28754;47.700;7.924;2023-05-29T06:11:44;16.40;99.90
42615;DHT22;28754;47.700;7.924;2023-05-29T06:14:31;16.60;99.90
42615;DHT22;28754;47.700;7.924;2023-05-29T06:17:19;16.70;99.90
42615;DHT22;28754;47.700;7.924;2023-05-29T06:20:06;16.80;99.90
42615;DHT22;28754;47.700;7.924;2023-05-29T06:22:59;16.80;99.90
42615;DHT22;28754;47.700;7.924;2023-05-29T06:25:48;16.90;99.90
42615;DHT22;28754;47.700;7.924;2023-05-29T06:28:35;17.00;99.90
42615;DHT22;28754;47.700;7.924;2023-05-29T06:31:22;17.10;99.90
42615;DHT22;28754;47.700;7.924;2023-05-29T06:34:09;17.10;99.90
42615;DHT22;28754;47.700;7.924;2023-05-29T06:36:57;17.00;99.90
42615;DHT22;28754;47.700;7.924;2023-05-29T06:39:46;17.30;99.90
42615;DHT22;28754;47.700;7.924;2023-05-29T06:42:33;17.30;99.90
42615;DHT22;28754;47.700;7.924;2023-05-29T06:45:29;17.40;99.90
42615;DHT22;28754;47.700;7.924;2023-05-29T06:48:15;17.50;99.90
42615;DHT22;28754;47.700;7.924;2023-05-29T06:51:07;17.70;99.90
42615;DHT22;28754;47.700;7.924;2023-05-29T06:54:01;17.80;99.90
42615;DHT22;28754;47.700;7.924;2023-05-29T06:56:49;17.80;99.90
42615;DHT22;28754;47.700;7.924;2023-05-29T06:59:36;17.90;99.90
42615;DHT22;28754;47.700;7.924;2023-05-29T07:02:23;17.90;99.90
42615;DHT22;28754;47.700;7.924;2023-05-29T07:05:14;18.10;99.90
42615;DHT22;28754;47.700;7.924;2023-05-29T07:08:02;18.20;99.90
42615;DHT22;28754;47.700;7.924;2023-05-29T07:10:49;18.30;99.90
42615;DHT22;28754;47.700;7.924;2023-05-29T07:13:36;18.30;99.90
42615;DHT22;28754;47.700;7.924;2023-05-29T07:16:22;18.50;99.90
42615;DHT22;28754;47.700;7.924;2023-05-29T07:19:13;18.40;99.90
42615;DHT22;28754;47.700;7.924;2023-05-29T07:22:01;18.50;99.90
42615;DHT22;28754;47.700;7.924;2023-05-29T07:24:48;18.40;99.90
42615;DHT22;28754;47.700;7.924;2023-05-29T07:27:34;18.50;99.90
42615;DHT22;28754;47.700;7.924;2023-05-29T07:30:22;18.70;99.90
42615;DHT22;28754;47.700;7.924;2023-05-29T07:33:10;18.80;99.90
42615;DHT22;28754;47.700;7.924;2023-05-29T07:35:57;18.70;99.90
42615;DHT22;28754;47.700;7.924;2023-05-29T07:38:45;18.80;99.90
42615;DHT22;28754;47.700;7.924;2023-05-29T07:41:34;18.90;99.90
42615;DHT22;28754;47.700;7.924;2023-05-29T07:44:21;19.10;99.90
42615;DHT22;28754;47.700;7.924;2023-05-29T07:47:09;19.20;99.90
42615;DHT22;28754;47.700;7.924;2023-05-29T07:50:04;19.40;99.90
42615;DHT22;28754;47.700;7.924;2023-05-29T07:52:52;19.40;99.90
42615;DHT22;28754;47.700;7.924;2023-05-29T07:55:42;19.50;99.90
42615;DHT22;28754;47.700;7.924;2023-05-29T07:58:30;19.50;99.90
42615;DHT22;28754;47.700;7.924;2023-05-29T08:01:17;19.60;99.90
42615;DHT22;28754;47.700;7.924;2023-05-29T08:04:12;19.70;99.90
42615;DHT22;28754;47.700;7.924;2023-05-29T08:07:04;19.90;99.90
42615;DHT22;28754;47.700;7.924;2023-05-29T08:09:56;19.80;99.90
42615;DHT22;28754;47.700;7.924;2023-05-29T08:12:44;20.00;99.90
42615;DHT22;28754;47.700;7.924;2023-05-29T08:15:35;19.90;99.90
42615;DHT22;28754;47.700;7.924;2023-05-29T08:18:26;20.00;99.90
42615;DHT22;28754;47.700;7.924;2023-05-29T08:21:13;20.20;99.90
42615;DHT22;28754;47.700;7.924;2023-05-29T08:24:01;20.30;99.90
42615;DHT22;28754;47.700;7.924;2023-05-29T08:26:51;20.20;99.90
42615;DHT22;28754;47.700;7.924;2023-05-29T08:29:38;20.30;99.90
42615;DHT22;28754;47.700;7.924;2023-05-29T08:32:25;20.30;99.90
42615;DHT22;28754;47.700;7.924;2023-05-29T08:35:22;20.60;99.90
42615;DHT22;28754;47.700;7.924;2023-05-29T08:38:09;20.50;99.90
42615;DHT22;28754;47.700;7.924;2023-05-29T08:40:59;20.70;99.90
42615;DHT22;28754;47.700;7.924;2023-05-29T08:43:47;20.70;99.90
42615;DHT22;28754;47.700;7.924;2023-05-29T08:46:36;20.60;99.90
42615;DHT22;28754;47.700;7.924;2023-05-29T08:49:27;20.70;99.90
42615;DHT22;28754;47.700;7.924;2023-05-29T08:52:17;20.50;99.90
42615;DHT22;28754;47.700;7.924;2023-05-29T08:55:06;20.70;99.90
42615;DHT22;28754;47.700;7.924;2023-05-29T08:57:53;21.10;99.90
42615;DHT22;28754;47.700;7.924;2023-05-29T09:00:41;21.10;99.90
42615;DHT22;28754;47.700;7.924;2023-05-29T09:03:29;21.10;99.90
42615;DHT22;28754;47.700;7.924;2023-05-29T09:06:17;20.90;99.90
42615;DHT22;28754;47.700;7.924;2023-05-29T09:09:04;20.90;99.90
42615;DHT22;28754;47.700;7.924;2023-05-29T09:11:52;20.80;99.90
42615;DHT22;28754;47.700;7.924;2023-05-29T09:14:41;20.90;99.90
42615;DHT22;28754;47.700;7.924;2023-05-29T09:17:33;21.20;99.90
42615;DHT22;28754;47.700;7.924;2023-05-29T09:20:21;21.40;99.90
42615;DHT22;28754;47.700;7.924;2023-05-29T09:23:11;21.60;99.90
42615;DHT22;28754;47.700;7.924;2023-05-29T09:25:58;21.60;99.90
42615;DHT22;28754;47.700;7.924;2023-05-29T09:28:49;21.50;99.90
42615;DHT22;28754;47.700;7.924;2023-05-29T09:31:46;21.60;99.90
42615;DHT22;28754;47.700;7.924;2023-05-29T09:34:33;22.10;99.90
42615;DHT22;28754;47.700;7.924;2023-05-29T09:37:19;22.10;99.90
42615;DHT22;28754;47.700;7.924;2023-05-29T09:40:11;21.80;99.90
42615;DHT22;28754;47.700;7.924;2023-05-29T09:43:11;21.80;99.90
42615;DHT22;28754;47.700;7.924;2023-05-29T09:46:00;22.00;99.90
42615;DHT22;28754;47.700;7.924;2023-05-29T09:48:48;22.40;99.90
42615;DHT22;28754;47.700;7.924;2023-05-29T09:51:35;22.30;99.90
42615;DHT22;28754;47.700;7.924;2023-05-29T09:54:22;22.60;99.90
42615;DHT22;28754;47.700;7.924;2023-05-29T09:57:09;22.80;99.90
42615;DHT22;28754;47.700;7.924;2023-05-29T09:59:58;23.10;99.90
42615;DHT22;28754;47.700;7.924;2023-05-29T10:02:48;23.00;99.90
42615;DHT22;28754;47.700;7.924;2023-05-29T10:05:37;22.60;99.90
42615;DHT22;28754;47.700;7.924;2023-05-29T10:08:26;22.90;99.90
42615;DHT22;28754;47.700;7.924;2023-05-29T10:11:23;22.90;99.90
42615;DHT22;28754;47.700;7.924;2023-05-29T10:14:18;22.80;99.90
42615;DHT22;28754;47.700;7.924;2023-05-29T10:17:07;22.60;99.90
42615;DHT22;28754;47.700;7.924;2023-05-29T10:19:56;22.60;99.90
42615;DHT22;28754;47.700;7.924;2023-05-29T10:22:47;22.60;99.90
42615;DHT22;28754;47.700;7.924;2023-05-29T10:25:36;22.50;99.90
42615;DHT22;28754;47.700;7.924;2023-05-29T10:28:24;22.70;99.90
42615;DHT22;28754;47.700;7.924;2023-05-29T10:31:18;22.70;99.90
42615;DHT22;28754;47.700;7.924;2023-05-29T10:38:02;22.90;99.90
42615;DHT22;28754;47.700;7.924;2023-05-29T10:40:55;23.10;99.90
42615;DHT22;28754;47.700;7.924;2023-05-29T10:43:43;23.40;99.90
42615;DHT22;28754;47.700;7.924;2023-05-29T10:49:32;23.70;99.90
42615;DHT22;28754;47.700;7.924;2023-05-29T10:52:19;23.50;99.90
42615;DHT22;28754;47.700;7.924;2023-05-29T10:55:07;23.20;99.90
42615;DHT22;28754;47.700;7.924;2023-05-29T10:57:58;23.00;99.90
42615;DHT22;28754;47.700;7.924;2023-05-29T11:00:45;23.40;99.90
42615;DHT22;28754;47.700;7.924;2023-05-29T11:03:32;23.50;99.90
42615;DHT22;28754;47.700;7.924;2023-05-29T11:06:23;23.30;99.90
42615;DHT22;28754;47.700;7.924;2023-05-29T11:09:32;23.20;99.90
42615;DHT22;28754;47.700;7.924;2023-05-29T11:12:25;23.70;99.90
42615;DHT22;28754;47.700;7.924;2023-05-29T11:15:19;23.40;99.90
42615;DHT22;28754;47.700;7.924;2023-05-29T11:18:09;23.80;99.90
42615;DHT22;28754;47.700;7.924;2023-05-29T11:21:04;23.40;99.90
42615;DHT22;28754;47.700;7.924;2023-05-29T11:24:00;23.30;99.90
42615;DHT22;28754;47.700;7.924;2023-05-29T11:26:51;23.30;99.90
42615;DHT22;28754;47.700;7.924;2023-05-29T11:29:41;23.50;99.90
42615;DHT22;28754;47.700;7.924;2023-05-29T11:32:29;23.30;99.90
42615;DHT22;28754;47.700;7.924;2023-05-29T11:35:22;23.30;99.90
42615;DHT22;28754;47.700;7.924;2023-05-29T11:38:09;23.30;99.90
42615;DHT22;28754;47.700;7.924;2023-05-29T11:40:56;23.10;99.90
42615;DHT22;28754;47.700;7.924;2023-05-29T11:43:44;23.00;99.90
42615;DHT22;28754;47.700;7.924;2023-05-29T11:46:41;23.20;99.90
42615;DHT22;28754;47.700;7.924;2023-05-29T11:49:29;23.40;99.90
42615;DHT22;28754;47.700;7.924;2023-05-29T11:52:17;23.80;99.90
42615;DHT22;28754;47.700;7.924;2023-05-29T11:55:08;23.70;99.90
42615;DHT22;28754;47.700;7.924;2023-05-29T11:57:57;24.00;99.90
42615;DHT22;28754;47.700;7.924;2023-05-29T12:00:47;24.10;99.90
42615;DHT22;28754;47.700;7.924;2023-05-29T12:03:40;24.00;99.90
42615;DHT22;28754;47.700;7.924;2023-05-29T12:06:31;24.00;99.90
42615;DHT22;28754;47.700;7.924;2023-05-29T12:09:24;23.50;99.90
42615;DHT22;28754;47.700;7.924;2023-05-29T12:12:14;23.90;99.90
42615;DHT22;28754;47.700;7.924;2023-05-29T12:15:01;24.00;99.90
42615;DHT22;28754;47.700;7.924;2023-05-29T12:17:54;23.80;99.90
42615;DHT22;28754;47.700;7.924;2023-05-29T12:20:42;23.80;99.90
42615;DHT22;28754;47.700;7.924;2023-05-29T12:23:29;24.10;99.90
42615;DHT22;28754;47.700;7.924;2023-05-29T12:26:16;24.40;99.90
42615;DHT22;28754;47.700;7.924;2023-05-29T12:29:03;24.30;99.90
42615;DHT22;28754;47.700;7.924;2023-05-29T12:31:59;25.00;99.90
42615;DHT22;28754;47.700;7.924;2023-05-29T12:34:49;24.50;99.90
42615;DHT22;28754;47.700;7.924;2023-05-29T12:37:36;24.40;99.90
42615;DHT22;28754;47.700;7.924;2023-05-29T12:40:30;24.70;99.90
42615;DHT22;28754;47.700;7.924;2023-05-29T12:43:25;24.60;99.90
42615;DHT22;28754;47.700;7.924;2023-05-29T12:46:12;24.50;99.90
42615;DHT22;28754;47.700;7.924;2023-05-29T12:49:14;24.40;99.90
42615;DHT22;28754;47.700;7.924;2023-05-29T12:52:06;24.30;99.90
42615;DHT22;28754;47.700;7.924;2023-05-29T12:54:54;24.30;99.90
42615;DHT22;28754;47.700;7.924;2023-05-29T12:57:43;24.40;99.90
42615;DHT22;28754;47.700;7.924;2023-05-29T13:04:30;24.60;99.90
42615;DHT22;28754;47.700;7.924;2023-05-29T13:07:19;24.30;99.90
42615;DHT22;28754;47.700;7.924;2023-05-29T13:10:06;24.60;99.90
42615;DHT22;28754;47.700;7.924;2023-05-29T13:12:57;25.10;99.90
42615;DHT22;28754;47.700;7.924;2023-05-29T13:15:46;24.60;99.90
42615;DHT22;28754;47.700;7.924;2023-05-29T13:22:42;24.60;99.90
42615;DHT22;28754;47.700;7.924;2023-05-29T13:25:38;24.80;99.90
42615;DHT22;28754;47.700;7.924;2023-05-29T13:37:14;28.00;99.90
42615;DHT22;28754;47.700;7.924;2023-05-29T13:40:01;28.30;99.90
42615;DHT22;28754;47.700;7.924;2023-05-29T13:42:47;27.40;99.90
42615;DHT22;28754;47.700;7.924;2023-05-29T13:45:34;26.80;99.90
42615;DHT22;28754;47.700;7.924;2023-05-29T13:48:21;26.60;99.90
42615;DHT22;28754;47.700;7.924;2023-05-29T13:51:08;26.30;99.90
42615;DHT22;28754;47.700;7.924;2023-05-29T13:53:54;25.40;99.90
42615;DHT22;28754;47.700;7.924;2023-05-29T13:56:41;25.60;99.90
42615;DHT22;28754;47.700;7.924;2023-05-29T13:59:28;25.30;99.90
42615;DHT22;28754;47.700;7.924;2023-05-29T14:02:15;24.90;99.90
42615;DHT22;28754;47.700;7.924;2023-05-29T14:05:03;24.50;99.90
42615;DHT22;28754;47.700;7.924;2023-05-29T14:07:50;24.20;99.90
42615;DHT22;28754;47.700;7.924;2023-05-29T14:10:37;24.40;99.90
42615;DHT22;28754;47.700;7.924;2023-05-29T14:13:23;24.40;99.90
42615;DHT22;28754;47.700;7.924;2023-05-29T14:16:10;24.60;99.90
42615;DHT22;28754;47.700;7.924;2023-05-29T14:18:57;24.50;99.90
42615;DHT22;28754;47.700;7.924;2023-05-29T14:21:45;24.50;99.90
42615;DHT22;28754;47.700;7.924;2023-05-29T14:24:32;24.40;99.90
42615;DHT22;28754;47.700;7.924;2023-05-29T14:27:18;24.40;99.90
42615;DHT22;28754;47.700;7.924;2023-05-29T14:30:06;24.40;99.90
42615;DHT22;28754;47.700;7.924;2023-05-29T14:32:52;24.30;99.90
42615;DHT22;28754;47.700;7.924;2023-05-29T14:35:39;24.30;99.90
42615;DHT22;28754;47.700;7.924;2023-05-29T14:38:26;24.30;99.90
42615;DHT22;28754;47.700;7.924;2023-05-29T14:41:12;24.20;99.90
42615;DHT22;28754;47.700;7.924;2023-05-29T14:43:59;24.10;99.90
42615;DHT22;28754;47.700;7.924;2023-05-29T14:46:46;24.10;99.90
42615;DHT22;28754;47.700;7.924;2023-05-29T14:49:32;24.40;99.90
42615;DHT22;28754;47.700;7.924;2023-05-29T14:52:20;24.20;99.90
42615;DHT22;28754;47.700;7.924;2023-05-29T14:55:07;24.50;99.90
42615;DHT22;28754;47.700;7.924;2023-05-29T14:57:55;24.50;99.90
42615;DHT22;28754;47.700;7.924;2023-05-29T15:00:41;24.90;99.90
42615;DHT22;28754;47.700;7.924;2023-05-29T15:03:28;24.50;99.90
42615;DHT22;28754;47.700;7.924;2023-05-29T15:06:15;24.30;99.90
42615;DHT22;28754;47.700;7.924;2023-05-29T15:09:01;24.40;99.90
42615;DHT22;28754;47.700;7.924;2023-05-29T15:11:48;24.40;99.90
42615;DHT22;28754;47.700;7.924;2023-05-29T15:14:35;24.40;99.90
42615;DHT22;28754;47.700;7.924;2023-05-29T15:17:23;25.00;99.90
42615;DHT22;28754;47.700;7.924;2023-05-29T15:20:10;25.10;99.90
42615;DHT22;28754;47.700;7.924;2023-05-29T15:22:57;25.10;99.90
42615;DHT22;28754;47.700;7.924;2023-05-29T15:25:44;24.90;99.90
42615;DHT22;28754;47.700;7.924;2023-05-29T15:28:31;24.80;99.90
42615;DHT22;28754;47.700;7.924;2023-05-29T15:31:19;24.30;99.90
42615;DHT22;28754;47.700;7.924;2023-05-29T15:34:07;24.30;99.90
42615;DHT22;28754;47.700;7.924;2023-05-29T15:36:54;24.60;99.90
42615;DHT22;28754;47.700;7.924;2023-05-29T15:39:41;24.70;99.90
42615;DHT22;28754;47.700;7.924;2023-05-29T15:42:28;24.80;99.90
42615;DHT22;28754;47.700;7.924;2023-05-29T15:45:15;24.80;99.90
42615;DHT22;28754;47.700;7.924;2023-05-29T15:48:02;24.20;99.90
42615;DHT22;28754;47.700;7.924;2023-05-29T15:50:49;24.40;99.90
42615;DHT22;28754;47.700;7.924;2023-05-29T15:53:36;24.50;99.90
42615;DHT22;28754;47.700;7.924;2023-05-29T15:56:23;24.10;99.90
42615;DHT22;28754;47.700;7.924;2023-05-29T15:59:13;24.20;99.90
42615;DHT22;28754;47.700;7.924;2023-05-29T16:02:00;23.90;99.90
42615;DHT22;28754;47.700;7.924;2023-05-29T16:04:46;23.70;99.90
42615;DHT22;28754;47.700;7.924;2023-05-29T16:07:34;24.00;99.90
42615;DHT22;28754;47.700;7.924;2023-05-29T16:10:21;24.00;99.90
42615;DHT22;28754;47.700;7.924;2023-05-29T16:13:08;23.90;99.90
42615;DHT22;28754;47.700;7.924;2023-05-29T16:15:55;23.80;99.90
42615;DHT22;28754;47.700;7.924;2023-05-29T16:18:41;24.00;99.90
42615;DHT22;28754;47.700;7.924;2023-05-29T16:21:28;24.00;99.90
42615;DHT22;28754;47.700;7.924;2023-05-29T16:24:15;23.70;99.90
42615;DHT22;28754;47.700;7.924;2023-05-29T16:27:02;23.50;99.90
42615;DHT22;28754;47.700;7.924;2023-05-29T16:29:49;23.60;99.90
42615;DHT22;28754;47.700;7.924;2023-05-29T16:32:36;23.30;99.90
42615;DHT22;28754;47.700;7.924;2023-05-29T16:35:23;23.10;99.90
42615;DHT22;28754;47.700;7.924;2023-05-29T16:38:09;23.00;99.90
42615;DHT22;28754;47.700;7.924;2023-05-29T16:40:56;22.80;99.90
42615;DHT22;28754;47.700;7.924;2023-05-29T16:43:43;22.50;99.90
42615;DHT22;28754;47.700;7.924;2023-05-29T16:46:29;22.40;99.90
42615;DHT22;28754;47.700;7.924;2023-05-29T16:49:17;22.60;99.90
42615;DHT22;28754;47.700;7.924;2023-05-29T16:52:06;22.70;99.90
42615;DHT22;28754;47.700;7.924;2023-05-29T16:54:53;22.70;99.90
42615;DHT22;28754;47.700;7.924;2023-05-29T16:57:42;22.80;99.90
42615;DHT22;28754;47.700;7.924;2023-05-29T17:00:29;22.70;99.90
42615;DHT22;28754;47.700;7.924;2023-05-29T17:03:15;22.60;99.90
42615;DHT22;28754;47.700;7.924;2023-05-29T17:06:02;22.50;99.90
42615;DHT22;28754;47.700;7.924;2023-05-29T17:08:49;22.50;99.90
42615;DHT22;28754;47.700;7.924;2023-05-29T17:11:36;22.40;99.90
42615;DHT22;28754;47.700;7.924;2023-05-29T17:14:23;22.40;99.90
42615;DHT22;28754;47.700;7.924;2023-05-29T17:17:10;22.20;99.90
42615;DHT22;28754;47.700;7.924;2023-05-29T17:19:57;21.90;99.90
42615;DHT22;28754;47.700;7.924;2023-05-29T17:22:43;21.90;99.90
42615;DHT22;28754;47.700;7.924;2023-05-29T17:25:30;21.90;99.90
42615;DHT22;28754;47.700;7.924;2023-05-29T17:28:17;22.00;99.90
42615;DHT22;28754;47.700;7.924;2023-05-29T17:31:04;22.00;99.90
42615;DHT22;28754;47.700;7.924;2023-05-29T17:33:50;22.00;99.90
42615;DHT22;28754;47.700;7.924;2023-05-29T17:36:37;21.70;99.90
42615;DHT22;28754;47.700;7.924;2023-05-29T17:39:24;21.50;99.90
42615;DHT22;28754;47.700;7.924;2023-05-29T17:42:10;21.40;99.90
42615;DHT22;28754;47.700;7.924;2023-05-29T17:44:57;21.40;99.90
42615;DHT22;28754;47.700;7.924;2023-05-29T17:47:44;21.40;99.90
42615;DHT22;28754;47.700;7.924;2023-05-29T17:50:31;21.40;99.90
42615;DHT22;28754;47.700;7.924;2023-05-29T17:53:22;21.30;99.90
42615;DHT22;28754;47.700;7.924;2023-05-29T17:56:09;21.30;99.90
42615;DHT22;28754;47.700;7.924;2023-05-29T17:58:56;21.40;99.90
42615;DHT22;28754;47.700;7.924;2023-05-29T18:01:42;21.30;99.90
42615;DHT22;28754;47.700;7.924;2023-05-29T18:04:29;21.30;99.90
42615;DHT22;28754;47.700;7.924;2023-05-29T18:07:16;21.10;99.90
42615;DHT22;28754;47.700;7.924;2023-05-29T18:10:03;21.00;99.90
42615;DHT22;28754;47.700;7.924;2023-05-29T18:12:51;21.00;99.90
42615;DHT22;28754;47.700;7.924;2023-05-29T18:15:38;20.90;99.90